Time,TemperatureF,DewpointF,PressureIn,WindDirection,WindDirectionDegrees,WindSpeedMPH,WindSpeedGustMPH,Humidity,HourlyPrecipIn,Conditions,Clouds,dailyrainin,SoftwareType,DateUTC
2013-10-28 00:00:00,59.9,51.6,30.13,WNW,293,4.0,4.0,74,0.00,,,0.00,WUHU216DAVISVP2,2013-10-28 04:00:00,
2013-10-28 00:01:00,59.9,51.7,30.13,West,281,3.0,4.0,74,0.00,,,0.00,WUHU216DAVISVP2,2013-10-28 04:01:00,
2013-10-28 00:06:00,60.0,51.8,30.13,West,280,4.0,4.0,74,0.00,,,0.00,WUHU216DAVISVP2,2013-10-28 04:06:00,
2013-10-28 00:11:00,59.9,51.7,30.13,West,279,4.0,4.0,74,0.00,,,0.00,WUHU216DAVISVP2,2013-10-28 04:11:00,
2013-10-28 00:16:00,59.8,51.6,30.13,WNW,283,4.0,4.0,74,0.00,,,0.00,WUHU216DAVISVP2,2013-10-28 04:16:00,
2013-10-28 00:21:00,59.5,51.7,30.13,WNW,283,4.0,4.0,75,0.00,,,0.00,WUHU216DAVISVP2,2013-10-28 04:21:00,
2013-10-28 00:26:00,59.5,52.0,30.13,WNW,283,3.0,4.0,76,0.00,,,0.00,WUHU216DAVISVP2,2013-10-28 04:26:00,
2013-10-28 00:30:00,59.6,52.0,30.13,West,270,4.0,4.0,76,0.00,,,0.00,WUHU216DAVISVP2,2013-10-28 04:30:00,
2013-10-28 00:31:00,59.7,52.2,30.13,WNW,286,3.0,4.0,76,0.00,,,0.00,WUHU216DAVISVP2,2013-10-28 04:31:00,
2013-10-28 00:36:00,60.1,52.3,30.13,WNW,283,3.0,4.0,75,0.00,,,0.00,WUHU216DAVISVP2,2013-10-28 04:36:00,
2013-10-28 00:41:00,60.4,52.2,30.13,West,281,2.0,4.0,74,0.00,,,0.00,WUHU216DAVISVP2,2013-10-28 04:41:00,
2013-10-28 00:46:00,60.7,52.5,30.13,WNW,285,3.0,4.0,74,0.00,,,0.00,WUHU216DAVISVP2,2013-10-28 04:46:00,
2013-10-28 00:51:00,61.0,52.4,30.12,WNW,284,3.0,3.0,73,0.00,,,0.00,WUHU216DAVISVP2,2013-10-28 04:51:00,
2013-10-28 00:56:00,61.1,52.1,30.13,West,279,4.0,4.0,72,0.00,,,0.00,WUHU216DAVISVP2,2013-10-28 04:56:00,
2013-10-28 01:00:00,61.0,52.3,30.13,WNW,293,3.0,4.0,73,0.00,,,0.00,WUHU216DAVISVP2,2013-10-28 05:00:00,
2013-10-28 01:01:00,61.0,52.4,30.13,West,274,4.0,4.0,73,0.00,,,0.00,WUHU216DAVISVP2,2013-10-28 05:01:00,
2013-10-28 01:06:00,60.9,52.3,30.13,West,276,3.0,4.0,73,0.00,,,0.00,WUHU216DAVISVP2,2013-10-28 05:06:00,
2013-10-28 01:11:00,60.8,52.2,30.12,WNW,286,0.0,4.0,73,0.00,,,0.00,WUHU216DAVISVP2,2013-10-28 05:11:00,
2013-10-28 01:16:00,60.3,52.1,30.12,NW,312,1.0,4.0,74,0.00,,,0.00,WUHU216DAVISVP2,2013-10-28 05:16:00,
2013-10-28 01:21:00,60.1,52.3,30.13,WNW,285,2.0,4.0,75,0.00,,,0.00,WUHU216DAVISVP2,2013-10-28 05:21:00,
2013-10-28 01:26:00,60.5,52.3,30.13,WNW,282,2.0,2.0,74,0.00,,,0.00,WUHU216DAVISVP2,2013-10-28 05:26:00,
2013-10-28 01:30:00,61.0,52.7,30.13,WNW,293,2.0,4.0,74,0.00,,,0.00,WUHU216DAVISVP2,2013-10-28 05:30:00,
2013-10-28 01:31:00,61.2,53.0,30.13,West,273,1.0,2.0,74,0.00,,,0.00,WUHU216DAVISVP2,2013-10-28 05:31:00,
2013-10-28 01:36:00,61.6,52.6,30.13,West,273,2.0,2.0,72,0.00,,,0.00,WUHU216DAVISVP2,2013-10-28 05:36:00,
2013-10-28 01:41:00,61.4,52.8,30.13,West,275,2.0,2.0,73,0.00,,,0.00,WUHU216DAVISVP2,2013-10-28 05:41:00,
2013-10-28 01:46:00,61.6,53.0,30.13,West,275,2.0,2.0,73,0.00,,,0.00,WUHU216DAVISVP2,2013-10-28 05:46:00,
2013-10-28 01:51:00,61.6,53.0,30.13,West,275,2.0,2.0,73,0.00,,,0.00,WUHU216DAVISVP2,2013-10-28 05:51:00,
2013-10-28 01:56:00,61.3,53.1,30.13,West,276,2.0,2.0,74,0.00,,,0.00,WUHU216DAVISVP2,2013-10-28 05:56:00,
2013-10-28 02:00:00,61.2,53.2,30.13,West,270,2.0,2.0,75,0.00,,,0.00,WUHU216DAVISVP2,2013-10-28 06:00:00,
2013-10-28 02:01:00,61.2,53.3,30.13,West,276,2.0,2.0,75,0.00,,,0.00,WUHU216DAVISVP2,2013-10-28 06:01:00,
2013-10-28 02:06:00,61.3,53.8,30.13,West,276,1.0,2.0,76,0.00,,,0.00,WUHU216DAVISVP2,2013-10-28 06:06:00,
2013-10-28 02:11:00,61.3,53.4,30.13,West,276,0.0,2.0,75,0.00,,,0.00,WUHU216DAVISVP2,2013-10-28 06:11:00,
2013-10-28 02:16:00,61.3,53.4,30.13,West,276,0.0,2.0,75,0.00,,,0.00,WUHU216DAVISVP2,2013-10-28 06:16:00,
2013-10-28 02:21:00,61.3,53.4,30.12,West,275,0.0,2.0,75,0.00,,,0.00,WUHU216DAVISVP2,2013-10-28 06:21:00,
2013-10-28 02:26:00,60.9,53.7,30.12,West,274,3.0,3.0,77,0.00,,,0.00,WUHU216DAVISVP2,2013-10-28 06:26:00,
2013-10-28 02:30:00,60.5,55.0,30.12,West,270,1.0,4.0,82,0.00,,,0.00,WUHU216DAVISVP2,2013-10-28 06:30:00,
2013-10-28 02:31:00,60.3,55.1,30.12,West,275,3.0,4.0,83,0.00,,,0.00,WUHU216DAVISVP2,2013-10-28 06:31:00,
2013-10-28 02:36:00,60.2,55.4,30.12,West,274,2.0,4.0,84,0.00,,,0.00,WUHU216DAVISVP2,2013-10-28 06:36:00,
2013-10-28 02:41:00,60.2,54.7,30.12,West,278,2.0,4.0,82,0.00,,,0.00,WUHU216DAVISVP2,2013-10-28 06:41:00,
2013-10-28 02:46:00,60.3,54.8,30.12,West,278,1.0,3.0,82,0.00,,,0.00,WUHU216DAVISVP2,2013-10-28 06:46:00,
2013-10-28 02:51:00,60.6,54.5,30.12,West,268,0.0,2.0,80,0.00,,,0.00,WUHU216DAVISVP2,2013-10-28 06:51:00,
2013-10-28 02:56:00,60.8,54.3,30.12,West,268,0.0,2.0,79,0.00,,,0.00,WUHU216DAVISVP2,2013-10-28 06:56:00,
2013-10-28 03:00:00,60.6,53.7,30.12,West,270,1.0,3.0,78,0.00,,,0.00,WUHU216DAVISVP2,2013-10-28 07:00:00,
2013-10-28 03:01:00,60.5,53.3,30.12,West,268,0.0,1.0,77,0.00,,,0.00,WUHU216DAVISVP2,2013-10-28 07:01:00,
2013-10-28 03:06:00,60.3,53.1,30.12,West,268,0.0,1.0,77,0.00,,,0.00,WUHU216DAVISVP2,2013-10-28 07:06:00,
2013-10-28 03:11:00,60.5,53.7,30.12,West,268,0.0,1.0,78,0.00,,,0.00,WUHU216DAVISVP2,2013-10-28 07:11:00,
2013-10-28 03:16:00,60.6,53.4,30.12,West,268,1.0,1.0,77,0.00,,,0.00,WUHU216DAVISVP2,2013-10-28 07:16:00,
2013-10-28 03:21:00,60.6,53.4,30.12,West,268,0.0,1.0,77,0.00,,,0.00,WUHU216DAVISVP2,2013-10-28 07:21:00,
2013-10-28 03:26:00,60.7,53.5,30.11,West,268,0.0,1.0,77,0.00,,,0.00,WUHU216DAVISVP2,2013-10-28 07:26:00,
2013-10-28 03:30:00,60.7,53.4,30.11,West,270,0.0,1.0,77,0.00,,,0.00,WUHU216DAVISVP2,2013-10-28 07:30:00,
2013-10-28 03:31:00,60.7,53.2,30.11,NW,310,0.0,1.0,76,0.00,,,0.00,WUHU216DAVISVP2,2013-10-28 07:31:00,
2013-10-28 03:36:00,60.7,53.5,30.11,NW,310,0.0,1.0,77,0.00,,,0.00,WUHU216DAVISVP2,2013-10-28 07:36:00,
2013-10-28 03:41:00,60.5,53.3,30.12,NW,309,0.0,1.0,77,0.00,,,0.00,WUHU216DAVISVP2,2013-10-28 07:41:00,
2013-10-28 03:46:00,60.7,53.2,30.12,NW,310,0.0,1.0,76,0.00,,,0.00,WUHU216DAVISVP2,2013-10-28 07:46:00,
2013-10-28 03:51:00,60.9,53.7,30.12,NNE,27,3.0,4.0,77,0.00,,,0.00,WUHU216DAVISVP2,2013-10-28 07:51:00,
2013-10-28 03:56:00,60.9,53.4,30.12,NNE,27,0.0,4.0,76,0.00,,,0.00,WUHU216DAVISVP2,2013-10-28 07:56:00,
2013-10-28 04:00:00,60.5,52.9,30.12,NNE,23,1.0,4.0,76,0.00,,,0.00,WUHU216DAVISVP2,2013-10-28 08:00:00,
2013-10-28 04:01:00,60.2,52.7,30.12,NNE,27,0.0,4.0,76,0.00,,,0.00,WUHU216DAVISVP2,2013-10-28 08:01:00,
2013-10-28 04:06:00,59.8,53.0,30.12,NNE,27,0.0,4.0,78,0.00,,,0.00,WUHU216DAVISVP2,2013-10-28 08:06:00,
2013-10-28 04:11:00,60.2,53.0,30.12,NNE,27,0.0,1.0,77,0.00,,,0.00,WUHU216DAVISVP2,2013-10-28 08:11:00,
2013-10-28 04:16:00,60.4,52.9,30.13,NNE,27,0.0,1.0,76,0.00,,,0.00,WUHU216DAVISVP2,2013-10-28 08:16:00,
2013-10-28 04:21:00,60.3,53.1,30.13,NNE,27,0.0,1.0,77,0.00,,,0.00,WUHU216DAVISVP2,2013-10-28 08:21:00,
2013-10-28 04:26:00,60.3,53.1,30.13,NNE,27,0.0,1.0,77,0.00,,,0.00,WUHU216DAVISVP2,2013-10-28 08:26:00,
2013-10-28 04:30:00,60.1,52.9,30.13,NNE,23,0.0,1.0,77,0.00,,,0.00,WUHU216DAVISVP2,2013-10-28 08:30:00,
2013-10-28 04:31:00,60.0,53.2,30.13,NNE,27,0.0,1.0,78,0.00,,,0.00,WUHU216DAVISVP2,2013-10-28 08:31:00,
2013-10-28 04:36:00,60.0,52.8,30.13,NNE,27,0.0,1.0,77,0.00,,,0.00,WUHU216DAVISVP2,2013-10-28 08:36:00,
2013-10-28 04:41:00,60.1,53.2,30.13,NNE,27,0.0,1.0,78,0.00,,,0.00,WUHU216DAVISVP2,2013-10-28 08:41:00,
2013-10-28 04:46:00,60.3,53.4,30.13,NNE,27,0.0,1.0,78,0.00,,,0.00,WUHU216DAVISVP2,2013-10-28 08:46:00,
2013-10-28 04:51:00,60.3,53.8,30.13,NNE,27,0.0,2.0,79,0.00,,,0.00,WUHU216DAVISVP2,2013-10-28 08:51:00,
2013-10-28 04:56:00,60.3,53.8,30.13,NNE,27,0.0,2.0,79,0.00,,,0.00,WUHU216DAVISVP2,2013-10-28 08:56:00,
2013-10-28 05:00:00,60.1,53.6,30.13,NNE,23,0.0,2.0,79,0.00,,,0.00,WUHU216DAVISVP2,2013-10-28 09:00:00,
2013-10-28 05:01:00,60.2,53.7,30.13,NNE,27,0.0,2.0,79,0.00,,,0.00,WUHU216DAVISVP2,2013-10-28 09:01:00,
2013-10-28 05:06:00,60.8,55.3,30.13,NNE,27,1.0,2.0,82,0.00,,,0.00,WUHU216DAVISVP2,2013-10-28 09:06:00,
2013-10-28 05:11:00,61.0,55.2,30.13,NNE,27,2.0,2.0,81,0.00,,,0.00,WUHU216DAVISVP2,2013-10-28 09:11:00,
2013-10-28 05:16:00,61.0,55.5,30.13,NNE,12,3.0,3.0,82,0.00,,,0.00,WUHU216DAVISVP2,2013-10-28 09:16:00,
2013-10-28 05:21:00,60.9,55.4,30.13,North,6,1.0,3.0,82,0.00,,,0.00,WUHU216DAVISVP2,2013-10-28 09:21:00,
2013-10-28 05:26:00,60.8,55.3,30.13,NNE,14,3.0,3.0,82,0.00,,,0.00,WUHU216DAVISVP2,2013-10-28 09:26:00,
2013-10-28 05:30:00,60.9,55.7,30.13,NNE,23,2.0,5.0,83,0.00,,,0.00,WUHU216DAVISVP2,2013-10-28 09:30:00,
2013-10-28 05:31:00,60.9,55.7,30.13,North,6,3.0,5.0,83,0.00,,,0.00,WUHU216DAVISVP2,2013-10-28 09:31:00,
2013-10-28 05:36:00,60.6,55.4,30.13,North,360,3.0,5.0,83,0.00,,,0.00,WUHU216DAVISVP2,2013-10-28 09:36:00,
2013-10-28 05:41:00,60.1,55.3,30.14,North,1,3.0,5.0,84,0.00,,,0.00,WUHU216DAVISVP2,2013-10-28 09:41:00,
2013-10-28 05:46:00,59.9,54.8,30.14,North,1,3.0,5.0,83,0.00,,,0.00,WUHU216DAVISVP2,2013-10-28 09:46:00,
2013-10-28 05:51:00,59.9,54.8,30.14,North,354,3.0,5.0,83,0.00,,,0.00,WUHU216DAVISVP2,2013-10-28 09:51:00,
2013-10-28 05:56:00,59.9,54.8,30.14,NNW,335,2.0,5.0,83,0.00,,,0.00,WUHU216DAVISVP2,2013-10-28 09:56:00,
2013-10-28 06:00:00,60.1,54.6,30.14,North,0,3.0,5.0,82,0.00,,,0.00,WUHU216DAVISVP2,2013-10-28 10:00:00,
2013-10-28 06:01:00,60.3,54.8,30.14,NNE,13,3.0,4.0,82,0.00,,,0.00,WUHU216DAVISVP2,2013-10-28 10:01:00,
2013-10-28 06:06:00,60.5,54.7,30.14,North,1,3.0,4.0,81,0.00,,,0.00,WUHU216DAVISVP2,2013-10-28 10:06:00,
2013-10-28 06:11:00,60.6,54.5,30.15,NNE,13,4.0,4.0,80,0.00,,,0.00,WUHU216DAVISVP2,2013-10-28 10:11:00,
2013-10-28 06:16:00,61.1,54.6,30.15,NNE,23,4.0,5.0,79,0.00,,,0.00,WUHU216DAVISVP2,2013-10-28 10:16:00,
2013-10-28 06:21:00,61.3,55.5,30.15,NNE,20,2.0,5.0,81,0.00,,,0.00,WUHU216DAVISVP2,2013-10-28 10:21:00,
2013-10-28 06:26:00,61.3,55.8,30.15,NNE,24,3.0,5.0,82,0.00,,,0.00,WUHU216DAVISVP2,2013-10-28 10:26:00,
2013-10-28 06:30:00,61.2,55.3,30.15,NNE,23,3.0,5.0,81,0.00,,,0.00,WUHU216DAVISVP2,2013-10-28 10:30:00,
2013-10-28 06:31:00,61.2,55.4,30.15,NNE,19,3.0,4.0,81,0.00,,,0.00,WUHU216DAVISVP2,2013-10-28 10:31:00,
2013-10-28 06:36:00,61.3,55.5,30.15,NNE,20,4.0,4.0,81,0.00,,,0.00,WUHU216DAVISVP2,2013-10-28 10:36:00,
2013-10-28 06:41:00,61.3,55.5,30.15,NNE,22,4.0,4.0,81,0.00,,,0.00,WUHU216DAVISVP2,2013-10-28 10:41:00,
2013-10-28 06:46:00,61.2,55.7,30.15,NNE,18,2.0,5.0,82,0.00,,,0.00,WUHU216DAVISVP2,2013-10-28 10:46:00,
2013-10-28 06:51:00,61.3,56.1,30.15,NE,36,4.0,5.0,83,0.00,,,0.00,WUHU216DAVISVP2,2013-10-28 10:51:00,
2013-10-28 06:56:00,61.4,56.5,30.15,NE,39,3.0,5.0,84,0.00,,,0.00,WUHU216DAVISVP2,2013-10-28 10:56:00,
2013-10-28 07:00:00,61.5,56.6,30.16,NNE,23,3.0,5.0,84,0.00,,,0.00,WUHU216DAVISVP2,2013-10-28 11:00:00,
2013-10-28 07:01:00,61.5,56.6,30.16,NE,40,2.0,5.0,84,0.00,,,0.00,WUHU216DAVISVP2,2013-10-28 11:01:00,
2013-10-28 07:06:00,61.8,56.9,30.16,NE,40,0.0,4.0,84,0.00,,,0.00,WUHU216DAVISVP2,2013-10-28 11:06:00,
2013-10-28 07:11:00,61.9,56.7,30.16,NE,40,0.0,4.0,83,0.00,,,0.00,WUHU216DAVISVP2,2013-10-28 11:11:00,
2013-10-28 07:16:00,62.2,57.3,30.16,NE,37,3.0,3.0,84,0.00,,,0.00,WUHU216DAVISVP2,2013-10-28 11:16:00,
2013-10-28 07:21:00,62.2,57.3,30.17,NNE,27,1.0,4.0,84,0.00,,,0.00,WUHU216DAVISVP2,2013-10-28 11:21:00,
2013-10-28 07:26:00,62.0,57.1,30.17,NNE,20,3.0,4.0,84,0.00,,,0.00,WUHU216DAVISVP2,2013-10-28 11:26:00,
2013-10-28 07:30:00,62.1,57.2,30.17,NE,45,2.0,4.0,84,0.00,,,0.00,WUHU216DAVISVP2,2013-10-28 11:30:00,
2013-10-28 07:31:00,62.2,57.6,30.17,NNE,27,3.0,4.0,85,0.00,,,0.00,WUHU216DAVISVP2,2013-10-28 11:31:00,
2013-10-28 07:36:00,62.3,57.7,30.17,NNE,30,4.0,4.0,85,0.00,,,0.00,WUHU216DAVISVP2,2013-10-28 11:36:00,
2013-10-28 07:41:00,62.2,57.6,30.17,NNE,30,3.0,4.0,85,0.00,,,0.00,WUHU216DAVISVP2,2013-10-28 11:41:00,
2013-10-28 07:46:00,62.5,57.9,30.17,NE,34,3.0,4.0,85,0.00,,,0.00,WUHU216DAVISVP2,2013-10-28 11:46:00,
2013-10-28 07:51:00,62.2,57.6,30.17,NNE,31,2.0,4.0,85,0.00,,,0.00,WUHU216DAVISVP2,2013-10-28 11:51:00,
2013-10-28 07:56:00,62.2,58.0,30.17,NNE,30,3.0,4.0,86,0.00,,,0.00,WUHU216DAVISVP2,2013-10-28 11:56:00,
2013-10-28 08:00:00,62.2,58.0,30.17,NNE,23,3.0,4.0,86,0.00,,,0.00,WUHU216DAVISVP2,2013-10-28 12:00:00,
2013-10-28 08:01:00,62.2,58.0,30.17,NE,37,3.0,4.0,86,0.00,,,0.00,WUHU216DAVISVP2,2013-10-28 12:01:00,
2013-10-28 08:06:00,62.4,58.2,30.18,NE,39,3.0,4.0,86,0.00,,,0.00,WUHU216DAVISVP2,2013-10-28 12:06:00,
2013-10-28 08:11:00,62.7,58.5,30.18,NE,34,2.0,4.0,86,0.00,,,0.00,WUHU216DAVISVP2,2013-10-28 12:11:00,
2013-10-28 08:16:00,62.9,58.3,30.18,NE,34,2.0,3.0,85,0.00,,,0.00,WUHU216DAVISVP2,2013-10-28 12:16:00,
2013-10-28 08:21:00,63.2,58.3,30.18,NNE,32,2.0,3.0,84,0.00,,,0.00,WUHU216DAVISVP2,2013-10-28 12:21:00,
2013-10-28 08:26:00,63.2,58.0,30.18,NNE,29,1.0,3.0,83,0.00,,,0.00,WUHU216DAVISVP2,2013-10-28 12:26:00,
2013-10-28 08:30:00,63.2,57.6,30.19,NE,45,2.0,3.0,82,0.00,,,0.00,WUHU216DAVISVP2,2013-10-28 12:30:00,
2013-10-28 08:31:00,63.1,57.9,30.19,NE,40,0.0,3.0,83,0.00,,,0.00,WUHU216DAVISVP2,2013-10-28 12:31:00,
2013-10-28 08:36:00,63.0,57.8,30.19,North,3,1.0,3.0,83,0.00,,,0.00,WUHU216DAVISVP2,2013-10-28 12:36:00,
2013-10-28 08:41:00,62.9,57.7,30.19,North,1,0.0,3.0,83,0.00,,,0.00,WUHU216DAVISVP2,2013-10-28 12:41:00,
2013-10-28 08:46:00,62.6,57.4,30.20,North,1,1.0,2.0,83,0.00,,,0.00,WUHU216DAVISVP2,2013-10-28 12:46:00,
2013-10-28 08:51:00,62.4,57.5,30.20,North,1,0.0,2.0,84,0.00,,,0.00,WUHU216DAVISVP2,2013-10-28 12:51:00,
2013-10-28 08:56:00,62.5,57.6,30.20,NNE,27,2.0,2.0,84,0.00,,,0.00,WUHU216DAVISVP2,2013-10-28 12:56:00,
2013-10-28 09:00:00,63.2,57.6,30.20,North,0,1.0,3.0,82,0.00,,,0.00,WUHU216DAVISVP2,2013-10-28 13:00:00,
2013-10-28 09:01:00,63.3,57.7,30.20,NNE,14,1.0,3.0,82,0.00,,,0.00,WUHU216DAVISVP2,2013-10-28 13:01:00,
2013-10-28 09:06:00,63.7,58.1,30.21,NNE,14,0.0,3.0,82,0.00,,,0.00,WUHU216DAVISVP2,2013-10-28 13:06:00,
2013-10-28 09:11:00,63.9,58.3,30.21,NNE,25,0.0,3.0,82,0.00,,,0.00,WUHU216DAVISVP2,2013-10-28 13:11:00,
2013-10-28 09:16:00,65.1,58.8,30.21,ENE,58,1.0,3.0,80,0.00,,,0.00,WUHU216DAVISVP2,2013-10-28 13:16:00,
2013-10-28 09:21:00,66.2,58.5,30.21,NE,37,3.0,4.0,76,0.00,,,0.00,WUHU216DAVISVP2,2013-10-28 13:21:00,
2013-10-28 09:26:00,66.8,58.4,30.22,NE,54,2.0,4.0,74,0.00,,,0.00,WUHU216DAVISVP2,2013-10-28 13:26:00,
2013-10-28 09:30:00,67.2,58.2,30.22,NE,45,1.0,4.0,73,0.00,,,0.00,WUHU216DAVISVP2,2013-10-28 13:30:00,
2013-10-28 09:31:00,67.3,58.9,30.21,NE,52,3.0,4.0,74,0.00,,,0.00,WUHU216DAVISVP2,2013-10-28 13:31:00,
2013-10-28 09:36:00,67.3,58.9,30.21,NE,45,3.0,4.0,74,0.00,,,0.00,WUHU216DAVISVP2,2013-10-28 13:36:00,
2013-10-28 09:41:00,67.3,58.7,30.21,East,96,2.0,4.0,74,0.00,,,0.00,WUHU216DAVISVP2,2013-10-28 13:41:00,
2013-10-28 09:46:00,67.4,59.2,30.21,East,101,1.0,4.0,75,0.00,,,0.00,WUHU216DAVISVP2,2013-10-28 13:46:00,
2013-10-28 09:51:00,67.6,58.4,30.22,NE,51,2.0,4.0,72,0.00,,,0.00,WUHU216DAVISVP2,2013-10-28 13:51:00,
2013-10-28 09:56:00,67.9,58.3,30.22,East,81,2.0,4.0,71,0.00,,,0.00,WUHU216DAVISVP2,2013-10-28 13:56:00,
2013-10-28 10:00:00,68.0,58.6,30.22,NE,45,2.0,4.0,72,0.00,,,0.00,WUHU216DAVISVP2,2013-10-28 14:00:00,
2013-10-28 10:01:00,68.1,58.9,30.22,ENE,74,2.0,4.0,72,0.00,,,0.00,WUHU216DAVISVP2,2013-10-28 14:01:00,
2013-10-28 10:06:00,68.6,58.4,30.22,East,96,3.0,3.0,70,0.00,,,0.00,WUHU216DAVISVP2,2013-10-28 14:06:00,
2013-10-28 10:11:00,68.8,58.8,30.22,East,82,0.0,4.0,70,0.00,,,0.00,WUHU216DAVISVP2,2013-10-28 14:11:00,
2013-10-28 10:16:00,68.8,59.2,30.22,East,97,1.0,4.0,71,0.00,,,0.00,WUHU216DAVISVP2,2013-10-28 14:16:00,
2013-10-28 10:21:00,68.5,57.3,30.22,East,100,4.0,5.0,67,0.00,,,0.00,WUHU216DAVISVP2,2013-10-28 14:21:00,
2013-10-28 10:26:00,68.8,56.7,30.22,ESE,104,3.0,5.0,65,0.00,,,0.00,WUHU216DAVISVP2,2013-10-28 14:26:00,
2013-10-28 10:30:00,69.2,56.9,30.22,East,90,3.0,5.0,65,0.00,,,0.00,WUHU216DAVISVP2,2013-10-28 14:30:00,
2013-10-28 10:31:00,69.3,56.3,30.22,East,92,5.0,5.0,63,0.00,,,0.00,WUHU216DAVISVP2,2013-10-28 14:31:00,
2013-10-28 10:36:00,69.2,57.5,30.22,ESE,103,4.0,6.0,66,0.00,,,0.00,WUHU216DAVISVP2,2013-10-28 14:36:00,
2013-10-28 10:41:00,69.4,56.0,30.22,ESE,103,5.0,6.0,62,0.00,,,0.00,WUHU216DAVISVP2,2013-10-28 14:41:00,
2013-10-28 10:46:00,69.8,56.6,30.22,ESE,120,5.0,6.0,63,0.00,,,0.00,WUHU216DAVISVP2,2013-10-28 14:46:00,
2013-10-28 10:51:00,69.6,56.2,30.22,ESE,105,5.0,7.0,62,0.00,,,0.00,WUHU216DAVISVP2,2013-10-28 14:51:00,
2013-10-28 10:56:00,69.7,56.3,30.22,ESE,102,4.0,7.0,62,0.00,,,0.00,WUHU216DAVISVP2,2013-10-28 14:56:00,
2013-10-28 11:00:00,69.6,56.4,30.22,ESE,113,5.0,7.0,63,0.00,,,0.00,WUHU216DAVISVP2,2013-10-28 15:00:00,
2013-10-28 11:01:00,69.6,56.6,30.22,ESE,115,6.0,7.0,63,0.00,,,0.00,WUHU216DAVISVP2,2013-10-28 15:01:00,
2013-10-28 11:06:00,69.8,55.5,30.22,ESE,104,6.0,7.0,60,0.00,,,0.00,WUHU216DAVISVP2,2013-10-28 15:06:00,
2013-10-28 11:11:00,69.2,55.4,30.22,ESE,106,6.0,7.0,61,0.00,,,0.00,WUHU216DAVISVP2,2013-10-28 15:11:00,
2013-10-28 11:16:00,69.3,55.5,30.22,SE,127,3.0,7.0,61,0.00,,,0.00,WUHU216DAVISVP2,2013-10-28 15:16:00,
2013-10-28 11:21:00,69.5,55.9,30.22,ENE,62,4.0,7.0,62,0.00,,,0.00,WUHU216DAVISVP2,2013-10-28 15:21:00,
2013-10-28 11:26:00,69.6,55.1,30.22,ESE,102,5.0,7.0,60,0.00,,,0.00,WUHU216DAVISVP2,2013-10-28 15:26:00,
2013-10-28 11:30:00,69.5,55.9,30.22,ESE,113,5.0,7.0,62,0.00,,,0.00,WUHU216DAVISVP2,2013-10-28 15:30:00,
2013-10-28 11:31:00,69.5,55.6,30.22,ESE,118,4.0,6.0,61,0.00,,,0.00,WUHU216DAVISVP2,2013-10-28 15:31:00,
2013-10-28 11:36:00,69.8,56.8,30.22,SE,133,4.0,6.0,63,0.00,,,0.00,WUHU216DAVISVP2,2013-10-28 15:36:00,
2013-10-28 11:41:00,69.7,55.8,30.22,SE,126,6.0,7.0,61,0.00,,,0.00,WUHU216DAVISVP2,2013-10-28 15:41:00,
2013-10-28 11:46:00,69.8,57.3,30.22,ESE,105,6.0,7.0,64,0.00,,,0.00,WUHU216DAVISVP2,2013-10-28 15:46:00,
2013-10-28 11:51:00,69.9,56.5,30.22,East,89,6.0,8.0,62,0.00,,,0.00,WUHU216DAVISVP2,2013-10-28 15:51:00,
2013-10-28 11:56:00,69.9,56.3,30.22,ESE,102,7.0,8.0,62,0.00,,,0.00,WUHU216DAVISVP2,2013-10-28 15:56:00,
2013-10-28 12:00:00,69.9,57.2,30.22,ESE,113,6.0,8.0,64,0.00,,,0.00,WUHU216DAVISVP2,2013-10-28 16:00:00,
2013-10-28 12:01:00,69.8,55.5,30.22,SE,126,7.0,9.0,60,0.00,,,0.00,WUHU216DAVISVP2,2013-10-28 16:01:00,
2013-10-28 12:06:00,69.7,56.3,30.22,SE,138,6.0,9.0,62,0.00,,,0.00,WUHU216DAVISVP2,2013-10-28 16:06:00,
2013-10-28 12:11:00,69.7,55.8,30.22,SE,138,7.0,9.0,61,0.00,,,0.00,WUHU216DAVISVP2,2013-10-28 16:11:00,
2013-10-28 12:16:00,69.6,56.6,30.22,SE,140,6.0,9.0,63,0.00,,,0.00,WUHU216DAVISVP2,2013-10-28 16:16:00,
2013-10-28 12:21:00,69.3,55.9,30.22,SE,139,5.0,8.0,62,0.00,,,0.00,WUHU216DAVISVP2,2013-10-28 16:21:00,
2013-10-28 12:26:00,69.2,55.8,30.22,SE,133,6.0,8.0,62,0.00,,,0.00,WUHU216DAVISVP2,2013-10-28 16:26:00,
2013-10-28 12:30:00,68.9,56.2,30.22,SE,135,6.0,9.0,64,0.00,,,0.00,WUHU216DAVISVP2,2013-10-28 16:30:00,
2013-10-28 12:31:00,68.9,56.8,30.22,SE,131,5.0,8.0,65,0.00,,,0.00,WUHU216DAVISVP2,2013-10-28 16:31:00,
2013-10-28 12:36:00,68.9,57.1,30.22,ESE,120,4.0,8.0,66,0.00,,,0.00,WUHU216DAVISVP2,2013-10-28 16:36:00,
2013-10-28 12:41:00,69.0,56.7,30.21,SE,127,4.0,8.0,65,0.00,,,0.00,WUHU216DAVISVP2,2013-10-28 16:41:00,
2013-10-28 12:46:00,68.9,56.8,30.21,SE,136,4.0,8.0,65,0.00,,,0.00,WUHU216DAVISVP2,2013-10-28 16:46:00,
2013-10-28 12:51:00,68.9,55.5,30.21,SE,131,4.0,7.0,62,0.00,,,0.00,WUHU216DAVISVP2,2013-10-28 16:51:00,
2013-10-28 12:56:00,69.0,56.5,30.21,SE,139,3.0,6.0,64,0.00,,,0.00,WUHU216DAVISVP2,2013-10-28 16:56:00,
2013-10-28 13:00:00,69.1,57.3,30.21,SE,135,4.0,8.0,66,0.00,,,0.00,WUHU216DAVISVP2,2013-10-28 17:00:00,
2013-10-28 13:02:00,69.1,56.6,30.20,SE,139,4.0,5.0,64,0.00,,,0.00,WUHU216DAVISVP2,2013-10-28 17:02:00,
2013-10-28 13:07:00,69.0,56.9,30.20,SE,129,3.0,5.0,65,0.00,,,0.00,WUHU216DAVISVP2,2013-10-28 17:07:00,
2013-10-28 13:12:00,68.9,57.3,30.20,SE,143,4.0,5.0,66,0.00,,,0.00,WUHU216DAVISVP2,2013-10-28 17:12:00,
2013-10-28 13:17:00,69.0,56.9,30.20,SE,143,5.0,5.0,65,0.00,,,0.00,WUHU216DAVISVP2,2013-10-28 17:17:00,
2013-10-28 13:22:00,69.0,56.1,30.20,SE,131,5.0,5.0,63,0.00,,,0.00,WUHU216DAVISVP2,2013-10-28 17:22:00,
2013-10-28 13:27:00,69.1,55.1,30.20,ESE,118,5.0,5.0,61,0.00,,,0.00,WUHU216DAVISVP2,2013-10-28 17:27:00,
2013-10-28 13:30:00,69.4,55.8,30.20,SE,135,4.0,5.0,62,0.00,,,0.00,WUHU216DAVISVP2,2013-10-28 17:30:00,
2013-10-28 13:32:00,69.5,56.1,30.20,ESE,117,4.0,5.0,62,0.00,,,0.00,WUHU216DAVISVP2,2013-10-28 17:32:00,
2013-10-28 13:37:00,69.4,55.5,30.20,SE,132,4.0,5.0,61,0.00,,,0.00,WUHU216DAVISVP2,2013-10-28 17:37:00,
2013-10-28 13:42:00,69.7,56.1,30.20,SE,127,2.0,5.0,62,0.00,,,0.00,WUHU216DAVISVP2,2013-10-28 17:42:00,
2013-10-28 13:47:00,69.9,56.0,30.19,ESE,105,2.0,5.0,61,0.00,,,0.00,WUHU216DAVISVP2,2013-10-28 17:47:00,
2013-10-28 13:52:00,70.0,56.1,30.19,ESE,111,2.0,5.0,61,0.00,,,0.00,WUHU216DAVISVP2,2013-10-28 17:52:00,
2013-10-28 13:57:00,70.3,56.4,30.19,SE,128,1.0,4.0,61,0.00,,,0.00,WUHU216DAVISVP2,2013-10-28 17:57:00,
2013-10-28 14:00:00,70.3,55.8,30.19,ESE,113,2.0,5.0,60,0.00,,,0.00,WUHU216DAVISVP2,2013-10-28 18:00:00,
2013-10-28 14:02:00,70.3,55.9,30.19,ESE,102,1.0,3.0,60,0.00,,,0.00,WUHU216DAVISVP2,2013-10-28 18:02:00,
2013-10-28 14:07:00,70.5,56.6,30.19,ENE,60,2.0,3.0,61,0.00,,,0.00,WUHU216DAVISVP2,2013-10-28 18:07:00,
2013-10-28 14:12:00,71.3,56.7,30.19,ESE,107,1.0,3.0,60,0.00,,,0.00,WUHU216DAVISVP2,2013-10-28 18:12:00,
2013-10-28 14:17:00,71.2,56.3,30.19,East,96,3.0,3.0,59,0.00,,,0.00,WUHU216DAVISVP2,2013-10-28 18:17:00,
2013-10-28 14:22:00,71.2,55.8,30.19,ENE,72,2.0,3.0,58,0.00,,,0.00,WUHU216DAVISVP2,2013-10-28 18:22:00,
2013-10-28 14:27:00,71.0,55.6,30.19,East,89,2.0,3.0,58,0.00,,,0.00,WUHU216DAVISVP2,2013-10-28 18:27:00,
2013-10-28 14:30:00,70.7,55.7,30.18,East,90,2.0,3.0,59,0.00,,,0.00,WUHU216DAVISVP2,2013-10-28 18:30:00,
2013-10-28 14:32:00,70.4,56.0,30.18,ESE,108,2.0,3.0,60,0.00,,,0.00,WUHU216DAVISVP2,2013-10-28 18:32:00,
2013-10-28 14:37:00,70.3,56.7,30.18,East,85,2.0,2.0,62,0.00,,,0.00,WUHU216DAVISVP2,2013-10-28 18:37:00,
2013-10-28 14:42:00,70.3,55.8,30.18,ESE,106,2.0,3.0,60,0.00,,,0.00,WUHU216DAVISVP2,2013-10-28 18:42:00,
2013-10-28 14:47:00,70.3,55.9,30.18,East,98,2.0,3.0,60,0.00,,,0.00,WUHU216DAVISVP2,2013-10-28 18:47:00,
2013-10-28 14:52:00,70.2,56.3,30.18,East,95,1.0,3.0,61,0.00,,,0.00,WUHU216DAVISVP2,2013-10-28 18:52:00,
2013-10-28 14:57:00,70.2,56.3,30.18,ESE,102,2.0,3.0,61,0.00,,,0.00,WUHU216DAVISVP2,2013-10-28 18:57:00,
2013-10-28 15:00:00,70.1,56.5,30.18,East,90,2.0,3.0,62,0.00,,,0.00,WUHU216DAVISVP2,2013-10-28 19:00:00,
2013-10-28 15:02:00,70.0,56.1,30.18,East,100,1.0,3.0,61,0.00,,,0.00,WUHU216DAVISVP2,2013-10-28 19:02:00,
2013-10-28 15:07:00,70.0,56.1,30.18,ESE,122,2.0,3.0,61,0.00,,,0.00,WUHU216DAVISVP2,2013-10-28 19:07:00,
2013-10-28 15:12:00,69.9,56.0,30.18,ESE,102,2.0,3.0,61,0.00,,,0.00,WUHU216DAVISVP2,2013-10-28 19:12:00,
2013-10-28 15:17:00,69.9,56.3,30.18,East,86,3.0,4.0,62,0.00,,,0.00,WUHU216DAVISVP2,2013-10-28 19:17:00,
2013-10-28 15:22:00,69.6,55.6,30.18,East,101,3.0,4.0,61,0.00,,,0.00,WUHU216DAVISVP2,2013-10-28 19:22:00,
2013-10-28 15:27:00,69.5,56.5,30.18,East,97,3.0,4.0,63,0.00,,,0.00,WUHU216DAVISVP2,2013-10-28 19:27:00,
2013-10-28 15:30:00,69.4,56.7,30.18,East,90,2.0,4.0,64,0.00,,,0.00,WUHU216DAVISVP2,2013-10-28 19:30:00,
2013-10-28 15:32:00,69.3,57.2,30.17,ENE,78,3.0,4.0,65,0.00,,,0.00,WUHU216DAVISVP2,2013-10-28 19:32:00,
2013-10-28 15:37:00,69.1,56.6,30.18,East,89,3.0,4.0,64,0.00,,,0.00,WUHU216DAVISVP2,2013-10-28 19:37:00,
2013-10-28 15:42:00,69.0,56.5,30.17,ENE,68,3.0,5.0,64,0.00,,,0.00,WUHU216DAVISVP2,2013-10-28 19:42:00,
2013-10-28 15:47:00,69.0,56.5,30.17,East,91,4.0,5.0,64,0.00,,,0.00,WUHU216DAVISVP2,2013-10-28 19:47:00,
2013-10-28 15:52:00,69.0,57.4,30.17,East,101,3.0,5.0,66,0.00,,,0.00,WUHU216DAVISVP2,2013-10-28 19:52:00,
2013-10-28 15:57:00,69.0,56.5,30.17,East,94,4.0,5.0,64,0.00,,,0.00,WUHU216DAVISVP2,2013-10-28 19:57:00,
2013-10-28 16:00:00,68.9,56.2,30.17,East,90,3.0,5.0,64,0.00,,,0.00,WUHU216DAVISVP2,2013-10-28 20:00:00,
2013-10-28 16:02:00,69.0,57.8,30.17,ESE,121,3.0,5.0,67,0.00,,,0.00,WUHU216DAVISVP2,2013-10-28 20:02:00,
2013-10-28 16:07:00,68.9,56.0,30.18,East,100,3.0,5.0,63,0.00,,,0.00,WUHU216DAVISVP2,2013-10-28 20:07:00,
2013-10-28 16:12:00,68.9,56.8,30.18,East,98,3.0,5.0,65,0.00,,,0.00,WUHU216DAVISVP2,2013-10-28 20:12:00,
2013-10-28 16:17:00,68.8,56.3,30.18,East,94,3.0,5.0,64,0.00,,,0.00,WUHU216DAVISVP2,2013-10-28 20:17:00,
2013-10-28 16:22:00,68.9,56.4,30.18,East,96,3.0,5.0,64,0.00,,,0.00,WUHU216DAVISVP2,2013-10-28 20:22:00,
2013-10-28 16:27:00,69.0,57.2,30.18,East,85,3.0,5.0,66,0.00,,,0.00,WUHU216DAVISVP2,2013-10-28 20:27:00,
2013-10-28 16:30:00,69.1,56.4,30.18,East,90,3.0,5.0,64,0.00,,,0.00,WUHU216DAVISVP2,2013-10-28 20:30:00,
2013-10-28 16:32:00,69.0,55.4,30.18,East,98,4.0,5.0,62,0.00,,,0.00,WUHU216DAVISVP2,2013-10-28 20:32:00,
2013-10-28 16:37:00,69.0,56.3,30.18,East,89,4.0,5.0,64,0.00,,,0.00,WUHU216DAVISVP2,2013-10-28 20:37:00,
2013-10-28 16:42:00,68.8,56.3,30.18,East,97,4.0,5.0,64,0.00,,,0.00,WUHU216DAVISVP2,2013-10-28 20:42:00,
2013-10-28 16:47:00,68.7,56.6,30.18,ESE,105,4.0,5.0,65,0.00,,,0.00,WUHU216DAVISVP2,2013-10-28 20:47:00,
2013-10-28 16:52:00,68.6,57.0,30.18,ESE,102,3.0,5.0,66,0.00,,,0.00,WUHU216DAVISVP2,2013-10-28 20:52:00,
2013-10-28 16:57:00,68.5,56.9,30.18,ESE,108,3.0,5.0,66,0.00,,,0.00,WUHU216DAVISVP2,2013-10-28 20:57:00,
2013-10-28 17:00:00,68.5,55.4,30.18,East,90,3.0,5.0,63,0.00,,,0.00,WUHU216DAVISVP2,2013-10-28 21:00:00,
2013-10-28 17:02:00,68.5,56.9,30.18,ESE,110,2.0,5.0,66,0.00,,,0.00,WUHU216DAVISVP2,2013-10-28 21:02:00,
2013-10-28 17:07:00,68.4,56.4,30.18,ESE,105,2.0,4.0,65,0.00,,,0.00,WUHU216DAVISVP2,2013-10-28 21:07:00,
2013-10-28 17:12:00,68.4,56.4,30.18,ESE,115,2.0,3.0,65,0.00,,,0.00,WUHU216DAVISVP2,2013-10-28 21:12:00,
2013-10-28 17:17:00,68.3,55.8,30.18,ESE,120,2.0,3.0,64,0.00,,,0.00,WUHU216DAVISVP2,2013-10-28 21:17:00,
2013-10-28 17:22:00,68.4,56.4,30.18,ESE,105,1.0,3.0,65,0.00,,,0.00,WUHU216DAVISVP2,2013-10-28 21:22:00,
2013-10-28 17:27:00,68.3,56.3,30.18,ESE,107,3.0,3.0,65,0.00,,,0.00,WUHU216DAVISVP2,2013-10-28 21:27:00,
2013-10-28 17:30:00,68.2,56.0,30.18,ESE,113,2.0,4.0,65,0.00,,,0.00,WUHU216DAVISVP2,2013-10-28 21:30:00,
2013-10-28 17:32:00,68.2,56.6,30.18,ESE,104,2.0,4.0,66,0.00,,,0.00,WUHU216DAVISVP2,2013-10-28 21:32:00,
2013-10-28 17:37:00,68.1,57.3,30.18,ESE,117,2.0,4.0,68,0.00,,,0.00,WUHU216DAVISVP2,2013-10-28 21:37:00,
2013-10-28 17:42:00,67.9,57.1,30.18,ESE,120,1.0,4.0,68,0.00,,,0.00,WUHU216DAVISVP2,2013-10-28 21:42:00,
2013-10-28 17:47:00,67.9,56.7,30.18,ESE,120,0.0,4.0,67,0.00,,,0.00,WUHU216DAVISVP2,2013-10-28 21:47:00,
2013-10-28 17:52:00,68.0,57.6,30.18,ESE,116,1.0,3.0,69,0.00,,,0.00,WUHU216DAVISVP2,2013-10-28 21:52:00,
2013-10-28 17:57:00,68.0,57.2,30.18,ESE,105,0.0,2.0,68,0.00,,,0.00,WUHU216DAVISVP2,2013-10-28 21:57:00,
2013-10-28 18:00:00,67.9,56.1,30.18,ESE,113,1.0,3.0,66,0.00,,,0.00,WUHU216DAVISVP2,2013-10-28 22:00:00,
2013-10-28 18:02:00,67.9,56.3,30.18,ESE,105,0.0,1.0,66,0.00,,,0.00,WUHU216DAVISVP2,2013-10-28 22:02:00,
2013-10-28 18:07:00,67.9,57.5,30.18,ESE,107,0.0,1.0,69,0.00,,,0.00,WUHU216DAVISVP2,2013-10-28 22:07:00,
2013-10-28 18:12:00,67.8,57.4,30.18,SE,124,0.0,1.0,69,0.00,,,0.00,WUHU216DAVISVP2,2013-10-28 22:12:00,
2013-10-28 18:17:00,67.7,57.3,30.19,SE,133,1.0,2.0,69,0.00,,,0.00,WUHU216DAVISVP2,2013-10-28 22:17:00,
2013-10-28 18:22:00,67.6,56.8,30.19,SE,137,1.0,2.0,68,0.00,,,0.00,WUHU216DAVISVP2,2013-10-28 22:22:00,
2013-10-28 18:27:00,67.5,57.1,30.19,SE,138,2.0,2.0,69,0.00,,,0.00,WUHU216DAVISVP2,2013-10-28 22:27:00,
2013-10-28 18:30:00,67.4,57.3,30.19,SE,135,1.0,2.0,70,0.00,,,0.00,WUHU216DAVISVP2,2013-10-28 22:30:00,
2013-10-28 18:32:00,67.4,57.8,30.19,SE,132,1.0,2.0,71,0.00,,,0.00,WUHU216DAVISVP2,2013-10-28 22:32:00,
2013-10-28 18:37:00,67.3,58.1,30.19,ESE,102,3.0,3.0,72,0.00,,,0.00,WUHU216DAVISVP2,2013-10-28 22:37:00,
2013-10-28 18:42:00,67.3,58.5,30.19,ESE,103,2.0,3.0,73,0.00,,,0.00,WUHU216DAVISVP2,2013-10-28 22:42:00,
2013-10-28 18:47:00,67.2,58.0,30.19,East,96,3.0,3.0,72,0.00,,,0.00,WUHU216DAVISVP2,2013-10-28 22:47:00,
2013-10-28 18:52:00,67.2,58.2,30.19,East,100,3.0,3.0,73,0.00,,,0.00,WUHU216DAVISVP2,2013-10-28 22:52:00,
2013-10-28 18:57:00,67.2,57.9,30.19,East,90,2.0,4.0,72,0.00,,,0.00,WUHU216DAVISVP2,2013-10-28 22:57:00,
2013-10-28 19:00:00,67.2,58.2,30.19,ESE,113,2.0,4.0,73,0.00,,,0.00,WUHU216DAVISVP2,2013-10-28 23:00:00,
2013-10-28 19:02:00,67.2,58.2,30.19,East,100,2.0,4.0,73,0.00,,,0.00,WUHU216DAVISVP2,2013-10-28 23:02:00,
2013-10-28 19:07:00,67.2,58.6,30.20,ESE,108,1.0,4.0,74,0.00,,,0.00,WUHU216DAVISVP2,2013-10-28 23:07:00,
2013-10-28 19:12:00,67.1,58.3,30.20,East,99,1.0,3.0,73,0.00,,,0.00,WUHU216DAVISVP2,2013-10-28 23:12:00,
2013-10-28 19:17:00,67.1,58.2,30.19,East,100,1.0,3.0,73,0.00,,,0.00,WUHU216DAVISVP2,2013-10-28 23:17:00,
2013-10-28 19:22:00,67.1,57.5,30.20,East,94,3.0,3.0,71,0.00,,,0.00,WUHU216DAVISVP2,2013-10-28 23:22:00,
2013-10-28 19:27:00,67.2,58.0,30.20,East,96,3.0,3.0,72,0.00,,,0.00,WUHU216DAVISVP2,2013-10-28 23:27:00,
2013-10-28 19:30:00,67.2,58.2,30.20,East,90,2.0,3.0,73,0.00,,,0.00,WUHU216DAVISVP2,2013-10-28 23:30:00,
2013-10-28 19:32:00,67.1,58.3,30.20,ESE,113,3.0,3.0,73,0.00,,,0.00,WUHU216DAVISVP2,2013-10-28 23:32:00,
2013-10-28 19:37:00,67.1,57.9,30.20,East,91,2.0,4.0,72,0.00,,,0.00,WUHU216DAVISVP2,2013-10-28 23:37:00,
2013-10-28 19:42:00,67.2,58.8,30.20,East,92,1.0,4.0,74,0.00,,,0.00,WUHU216DAVISVP2,2013-10-28 23:42:00,
2013-10-28 19:47:00,67.1,58.7,30.20,East,84,1.0,4.0,74,0.00,,,0.00,WUHU216DAVISVP2,2013-10-28 23:47:00,
2013-10-28 19:52:00,67.0,58.2,30.20,East,91,3.0,4.0,73,0.00,,,0.00,WUHU216DAVISVP2,2013-10-28 23:52:00,
2013-10-28 19:57:00,67.0,58.2,30.20,East,86,2.0,3.0,73,0.00,,,0.00,WUHU216DAVISVP2,2013-10-28 23:57:00,
2013-10-28 20:00:00,67.1,57.8,30.20,East,90,2.0,4.0,72,0.00,,,0.00,WUHU216DAVISVP2,2013-10-29 00:00:00,
2013-10-28 20:02:00,67.1,58.3,30.20,East,87,2.0,3.0,73,0.00,,,0.00,WUHU216DAVISVP2,2013-10-29 00:02:00,
2013-10-28 20:07:00,67.1,58.7,30.20,East,82,1.0,3.0,74,0.00,,,0.00,WUHU216DAVISVP2,2013-10-29 00:07:00,
2013-10-28 20:12:00,67.0,58.6,30.20,East,91,2.0,3.0,74,0.00,,,0.00,WUHU216DAVISVP2,2013-10-29 00:12:00,
2013-10-28 20:17:00,67.0,59.3,30.20,East,88,2.0,3.0,76,0.00,,,0.00,WUHU216DAVISVP2,2013-10-29 00:17:00,
2013-10-28 20:22:00,66.8,58.7,30.20,East,92,2.0,3.0,75,0.00,,,0.00,WUHU216DAVISVP2,2013-10-29 00:22:00,
2013-10-28 20:27:00,66.9,59.5,30.20,ENE,75,1.0,3.0,77,0.00,,,0.00,WUHU216DAVISVP2,2013-10-29 00:27:00,
2013-10-28 20:30:00,66.8,59.4,30.21,East,90,2.0,3.0,77,0.00,,,0.00,WUHU216DAVISVP2,2013-10-29 00:30:00,
2013-10-28 20:32:00,66.7,59.3,30.20,ENE,77,0.0,3.0,77,0.00,,,0.00,WUHU216DAVISVP2,2013-10-29 00:32:00,
2013-10-28 20:37:00,66.5,59.2,30.21,East,98,0.0,3.0,77,0.00,,,0.00,WUHU216DAVISVP2,2013-10-29 00:37:00,
2013-10-28 20:42:00,66.3,59.3,30.21,East,98,0.0,3.0,78,0.00,,,0.00,WUHU216DAVISVP2,2013-10-29 00:42:00,
2013-10-28 20:47:00,66.1,59.1,30.21,East,79,1.0,2.0,78,0.00,,,0.00,WUHU216DAVISVP2,2013-10-29 00:47:00,
2013-10-28 20:52:00,65.9,58.9,30.21,SE,143,0.0,2.0,78,0.00,,,0.00,WUHU216DAVISVP2,2013-10-29 00:52:00,
2013-10-28 20:57:00,65.7,58.7,30.21,ESE,108,0.0,2.0,78,0.00,,,0.00,WUHU216DAVISVP2,2013-10-29 00:57:00,
2013-10-28 21:00:00,65.6,58.6,30.21,ESE,113,0.0,2.0,78,0.00,,,0.00,WUHU216DAVISVP2,2013-10-29 01:00:00,
2013-10-28 21:02:00,65.5,58.5,30.21,ESE,108,0.0,2.0,78,0.00,,,0.00,WUHU216DAVISVP2,2013-10-29 01:02:00,
2013-10-28 21:07:00,65.3,58.4,30.22,ESE,108,0.0,1.0,78,0.00,,,0.00,WUHU216DAVISVP2,2013-10-29 01:07:00,
2013-10-28 21:12:00,64.9,58.0,30.22,ESE,108,0.0,1.0,78,0.00,,,0.00,WUHU216DAVISVP2,2013-10-29 01:12:00,
2013-10-28 21:17:00,64.5,57.5,30.22,ESE,108,0.0,1.0,78,0.00,,,0.00,WUHU216DAVISVP2,2013-10-29 01:17:00,
2013-10-28 21:22:00,64.3,57.6,30.22,ESE,108,0.0,0.0,79,0.00,,,0.00,WUHU216DAVISVP2,2013-10-29 01:22:00,
2013-10-28 21:27:00,64.6,57.9,30.22,ESE,108,0.0,0.0,79,0.00,,,0.00,WUHU216DAVISVP2,2013-10-29 01:27:00,
2013-10-28 21:30:00,64.5,57.8,30.22,ESE,113,0.0,1.0,79,0.00,,,0.00,WUHU216DAVISVP2,2013-10-29 01:30:00,
2013-10-28 21:32:00,64.3,57.7,30.22,WNW,290,1.0,2.0,79,0.00,,,0.00,WUHU216DAVISVP2,2013-10-29 01:32:00,
2013-10-28 21:37:00,64.5,58.3,30.22,WNW,290,0.0,2.0,80,0.00,,,0.00,WUHU216DAVISVP2,2013-10-29 01:37:00,
2013-10-28 21:42:00,64.8,58.6,30.22,WNW,292,0.0,2.0,80,0.00,,,0.00,WUHU216DAVISVP2,2013-10-29 01:42:00,
2013-10-28 21:47:00,65.4,58.8,30.22,WNW,293,0.0,2.0,79,0.00,,,0.00,WUHU216DAVISVP2,2013-10-29 01:47:00,
2013-10-28 21:52:00,65.1,58.5,30.22,WNW,293,0.0,1.0,79,0.00,,,0.00,WUHU216DAVISVP2,2013-10-29 01:52:00,
2013-10-28 21:57:00,65.2,58.6,30.22,WNW,293,0.0,1.0,79,0.00,,,0.00,WUHU216DAVISVP2,2013-10-29 01:57:00,
2013-10-28 22:00:00,65.4,58.7,30.22,WNW,293,0.0,2.0,79,0.00,,,0.00,WUHU216DAVISVP2,2013-10-29 02:00:00,
2013-10-28 22:02:00,65.4,58.8,30.22,WNW,293,0.0,1.0,79,0.00,,,0.00,WUHU216DAVISVP2,2013-10-29 02:02:00,
2013-10-28 22:07:00,65.5,58.9,30.22,WNW,293,0.0,1.0,79,0.00,,,0.00,WUHU216DAVISVP2,2013-10-29 02:07:00,
2013-10-28 22:12:00,65.5,58.9,30.22,WNW,293,0.0,1.0,79,0.00,,,0.00,WUHU216DAVISVP2,2013-10-29 02:12:00,
2013-10-28 22:17:00,65.7,59.0,30.23,WNW,293,0.0,1.0,79,0.00,,,0.00,WUHU216DAVISVP2,2013-10-29 02:17:00,
2013-10-28 22:22:00,65.5,58.5,30.23,WNW,293,0.0,1.0,78,0.00,,,0.00,WUHU216DAVISVP2,2013-10-29 02:22:00,
2013-10-28 22:27:00,65.2,58.5,30.23,WNW,293,0.0,1.0,79,0.00,,,0.00,WUHU216DAVISVP2,2013-10-29 02:27:00,
2013-10-28 22:30:00,65.1,58.4,30.23,WNW,293,0.0,1.0,79,0.00,,,0.00,WUHU216DAVISVP2,2013-10-29 02:30:00,
2013-10-28 22:32:00,65.0,58.3,30.23,WNW,293,0.0,1.0,79,0.00,,,0.00,WUHU216DAVISVP2,2013-10-29 02:32:00,
2013-10-28 22:37:00,64.8,58.2,30.23,WNW,293,0.0,0.0,79,0.00,,,0.00,WUHU216DAVISVP2,2013-10-29 02:37:00,
2013-10-28 22:42:00,64.6,58.4,30.23,WNW,293,0.0,1.0,80,0.00,,,0.00,WUHU216DAVISVP2,2013-10-29 02:42:00,
2013-10-28 22:47:00,64.4,58.2,30.23,WNW,293,0.0,1.0,80,0.00,,,0.00,WUHU216DAVISVP2,2013-10-29 02:47:00,
2013-10-28 22:52:00,64.5,58.3,30.23,WNW,293,1.0,1.0,80,0.00,,,0.00,WUHU216DAVISVP2,2013-10-29 02:52:00,
2013-10-28 22:57:00,64.5,58.3,30.23,WNW,295,0.0,1.0,80,0.00,,,0.00,WUHU216DAVISVP2,2013-10-29 02:57:00,
2013-10-28 23:00:00,64.5,58.2,30.23,WNW,293,0.0,1.0,80,0.00,,,0.00,WUHU216DAVISVP2,2013-10-29 03:00:00,
2013-10-28 23:02:00,64.4,58.2,30.23,NW,321,0.0,1.0,80,0.00,,,0.00,WUHU216DAVISVP2,2013-10-29 03:02:00,
2013-10-28 23:07:00,64.5,58.6,30.23,North,5,2.0,2.0,81,0.00,,,0.00,WUHU216DAVISVP2,2013-10-29 03:07:00,
2013-10-28 23:12:00,64.9,58.7,30.23,NNE,13,1.0,2.0,80,0.00,,,0.00,WUHU216DAVISVP2,2013-10-29 03:12:00,
2013-10-28 23:17:00,64.7,58.1,30.23,North,11,1.0,2.0,79,0.00,,,0.00,WUHU216DAVISVP2,2013-10-29 03:17:00,
2013-10-28 23:22:00,64.3,58.1,30.23,North,11,0.0,2.0,80,0.00,,,0.00,WUHU216DAVISVP2,2013-10-29 03:22:00,
2013-10-28 23:27:00,64.0,58.1,30.23,NNW,330,1.0,1.0,81,0.00,,,0.00,WUHU216DAVISVP2,2013-10-29 03:27:00,
2013-10-28 23:30:00,63.6,57.7,30.23,NNE,23,1.0,2.0,81,0.00,,,0.00,WUHU216DAVISVP2,2013-10-29 03:30:00,
2013-10-28 23:32:00,63.4,57.9,30.23,NW,322,2.0,2.0,82,0.00,,,0.00,WUHU216DAVISVP2,2013-10-29 03:32:00,
2013-10-28 23:37:00,63.3,58.1,30.23,NW,308,1.0,2.0,83,0.00,,,0.00,WUHU216DAVISVP2,2013-10-29 03:37:00,
2013-10-28 23:42:00,63.2,58.0,30.23,NW,308,1.0,2.0,83,0.00,,,0.00,WUHU216DAVISVP2,2013-10-29 03:42:00,
2013-10-28 23:47:00,63.3,58.1,30.23,NW,308,1.0,2.0,83,0.00,,,0.00,WUHU216DAVISVP2,2013-10-29 03:47:00,
2013-10-28 23:52:00,63.7,58.5,30.23,NW,311,0.0,1.0,83,0.00,,,0.00,WUHU216DAVISVP2,2013-10-29 03:52:00,
2013-10-28 23:57:00,64.5,58.6,30.23,NW,311,0.0,1.0,81,0.00,,,0.00,WUHU216DAVISVP2,2013-10-29 03:57:00,